sensor_id;sensor_type;location;lat;lon;timestamp;P1;durP1;ratioP1;P2;durP2;ratioP2
44110;SDS011;29774;52.664;5.074;2022-12-24T00:00:31;1.40;;;0.82;;
44110;SDS011;29774;52.664;5.074;2022-12-24T00:02:57;1.40;;;1.00;;
44110;SDS011;29774;52.664;5.074;2022-12-24T00:05:23;2.88;;;1.02;;
44110;SDS011;29774;52.664;5.074;2022-12-24T00:07:48;1.83;;;1.00;;
44110;SDS011;29774;52.664;5.074;2022-12-24T00:10:14;1.38;;;0.88;;
44110;SDS011;29774;52.664;5.074;2022-12-24T00:12:40;2.17;;;1.02;;
44110;SDS011;29774;52.664;5.074;2022-12-24T00:15:06;7.22;;;1.45;;
44110;SDS011;29774;52.664;5.074;2022-12-24T00:17:32;5.18;;;1.33;;
44110;SDS011;29774;52.664;5.074;2022-12-24T00:19:58;4.20;;;1.25;;
44110;SDS011;29774;52.664;5.074;2022-12-24T00:22:24;4.53;;;1.10;;
44110;SDS011;29774;52.664;5.074;2022-12-24T00:24:50;7.30;;;1.15;;
44110;SDS011;29774;52.664;5.074;2022-12-24T00:27:16;5.65;;;1.70;;
44110;SDS011;29774;52.664;5.074;2022-12-24T00:29:42;8.30;;;1.70;;
44110;SDS011;29774;52.664;5.074;2022-12-24T00:32:07;11.80;;;2.13;;
44110;SDS011;29774;52.664;5.074;2022-12-24T00:34:36;14.45;;;2.60;;
44110;SDS011;29774;52.664;5.074;2022-12-24T00:37:03;12.73;;;2.35;;
44110;SDS011;29774;52.664;5.074;2022-12-24T00:39:29;20.30;;;3.13;;
44110;SDS011;29774;52.664;5.074;2022-12-24T00:41:55;19.40;;;3.60;;
44110;SDS011;29774;52.664;5.074;2022-12-24T00:44:21;11.60;;;2.25;;
44110;SDS011;29774;52.664;5.074;2022-12-24T00:46:46;8.32;;;2.20;;
44110;SDS011;29774;52.664;5.074;2022-12-24T00:49:12;5.57;;;1.58;;
44110;SDS011;29774;52.664;5.074;2022-12-24T00:51:38;9.73;;;2.42;;
44110;SDS011;29774;52.664;5.074;2022-12-24T00:54:04;5.22;;;1.85;;
44110;SDS011;29774;52.664;5.074;2022-12-24T00:56:30;5.65;;;2.17;;
44110;SDS011;29774;52.664;5.074;2022-12-24T00:58:56;10.68;;;2.15;;
44110;SDS011;29774;52.664;5.074;2022-12-24T01:01:22;6.75;;;2.13;;
44110;SDS011;29774;52.664;5.074;2022-12-24T01:03:48;9.98;;;2.47;;
44110;SDS011;29774;52.664;5.074;2022-12-24T01:06:19;13.93;;;2.63;;
44110;SDS011;29774;52.664;5.074;2022-12-24T01:08:45;12.43;;;2.35;;
44110;SDS011;29774;52.664;5.074;2022-12-24T01:11:14;17.67;;;3.35;;
44110;SDS011;29774;52.664;5.074;2022-12-24T01:13:40;18.60;;;3.53;;
44110;SDS011;29774;52.664;5.074;2022-12-24T01:16:16;16.33;;;3.70;;
44110;SDS011;29774;52.664;5.074;2022-12-24T01:18:44;15.32;;;3.33;;
44110;SDS011;29774;52.664;5.074;2022-12-24T01:21:09;17.55;;;4.13;;
44110;SDS011;29774;52.664;5.074;2022-12-24T01:23:35;17.00;;;3.10;;
44110;SDS011;29774;52.664;5.074;2022-12-24T01:26:01;10.90;;;3.17;;
44110;SDS011;29774;52.664;5.074;2022-12-24T01:28:29;11.13;;;3.08;;
44110;SDS011;29774;52.664;5.074;2022-12-24T01:30:56;18.35;;;3.33;;
44110;SDS011;29774;52.664;5.074;2022-12-24T01:33:21;15.35;;;3.40;;
44110;SDS011;29774;52.664;5.074;2022-12-24T01:35:47;8.95;;;2.33;;
44110;SDS011;29774;52.664;5.074;2022-12-24T01:38:13;17.48;;;4.05;;
44110;SDS011;29774;52.664;5.074;2022-12-24T01:40:39;8.10;;;2.15;;
44110;SDS011;29774;52.664;5.074;2022-12-24T01:43:26;6.00;;;1.65;;
44110;SDS011;29774;52.664;5.074;2022-12-24T01:45:55;10.63;;;2.88;;
44110;SDS011;29774;52.664;5.074;2022-12-24T01:48:40;16.60;;;2.90;;
44110;SDS011;29774;52.664;5.074;2022-12-24T01:51:32;6.38;;;1.77;;
44110;SDS011;29774;52.664;5.074;2022-12-24T01:56:34;19.30;;;4.22;;
44110;SDS011;29774;52.664;5.074;2022-12-24T01:59:05;27.15;;;4.40;;
44110;SDS011;29774;52.664;5.074;2022-12-24T02:01:34;10.68;;;2.55;;
44110;SDS011;29774;52.664;5.074;2022-12-24T02:04:01;10.15;;;2.05;;
44110;SDS011;29774;52.664;5.074;2022-12-24T02:06:36;10.13;;;2.80;;
44110;SDS011;29774;52.664;5.074;2022-12-24T02:09:01;17.48;;;3.75;;
44110;SDS011;29774;52.664;5.074;2022-12-24T02:11:27;12.48;;;2.83;;
44110;SDS011;29774;52.664;5.074;2022-12-24T02:13:56;21.10;;;4.00;;
44110;SDS011;29774;52.664;5.074;2022-12-24T02:22:06;20.55;;;3.75;;
44110;SDS011;29774;52.664;5.074;2022-12-24T02:30:55;27.45;;;3.85;;
44110;SDS011;29774;52.664;5.074;2022-12-24T02:36:22;15.40;;;3.03;;
44110;SDS011;29774;52.664;5.074;2022-12-24T02:39:02;15.68;;;3.83;;
44110;SDS011;29774;52.664;5.074;2022-12-24T02:41:31;21.55;;;4.57;;
44110;SDS011;29774;52.664;5.074;2022-12-24T02:44:20;16.40;;;3.55;;
44110;SDS011;29774;52.664;5.074;2022-12-24T02:46:49;15.50;;;3.75;;
44110;SDS011;29774;52.664;5.074;2022-12-24T02:49:15;20.73;;;4.75;;
44110;SDS011;29774;52.664;5.074;2022-12-24T02:51:41;20.48;;;4.05;;
44110;SDS011;29774;52.664;5.074;2022-12-24T02:54:06;21.42;;;4.32;;
44110;SDS011;29774;52.664;5.074;2022-12-24T02:59:17;22.08;;;4.85;;
44110;SDS011;29774;52.664;5.074;2022-12-24T03:02:08;17.23;;;3.10;;
44110;SDS011;29774;52.664;5.074;2022-12-24T03:04:51;19.90;;;3.72;;
44110;SDS011;29774;52.664;5.074;2022-12-24T03:07:28;19.90;;;4.05;;
44110;SDS011;29774;52.664;5.074;2022-12-24T03:12:41;19.00;;;4.40;;
44110;SDS011;29774;52.664;5.074;2022-12-24T03:15:09;16.35;;;3.45;;
44110;SDS011;29774;52.664;5.074;2022-12-24T03:17:37;23.40;;;4.28;;
44110;SDS011;29774;52.664;5.074;2022-12-24T03:20:06;30.02;;;5.07;;
44110;SDS011;29774;52.664;5.074;2022-12-24T03:22:35;23.30;;;4.18;;
44110;SDS011;29774;52.664;5.074;2022-12-24T03:25:01;19.98;;;5.00;;
44110;SDS011;29774;52.664;5.074;2022-12-24T03:27:27;19.83;;;4.70;;
44110;SDS011;29774;52.664;5.074;2022-12-24T03:29:56;21.40;;;4.10;;
44110;SDS011;29774;52.664;5.074;2022-12-24T03:32:29;22.90;;;3.42;;
44110;SDS011;29774;52.664;5.074;2022-12-24T03:34:56;22.27;;;3.92;;
44110;SDS011;29774;52.664;5.074;2022-12-24T03:37:22;21.33;;;4.85;;
44110;SDS011;29774;52.664;5.074;2022-12-24T03:39:48;21.48;;;5.03;;
44110;SDS011;29774;52.664;5.074;2022-12-24T03:42:13;26.42;;;4.60;;
44110;SDS011;29774;52.664;5.074;2022-12-24T03:44:39;22.35;;;3.72;;
44110;SDS011;29774;52.664;5.074;2022-12-24T03:47:04;21.98;;;4.00;;
44110;SDS011;29774;52.664;5.074;2022-12-24T03:49:30;23.08;;;4.78;;
44110;SDS011;29774;52.664;5.074;2022-12-24T03:51:55;19.13;;;3.92;;
44110;SDS011;29774;52.664;5.074;2022-12-24T03:54:21;21.42;;;4.22;;
44110;SDS011;29774;52.664;5.074;2022-12-24T03:56:47;27.75;;;5.45;;
44110;SDS011;29774;52.664;5.074;2022-12-24T03:59:12;19.08;;;4.43;;
44110;SDS011;29774;52.664;5.074;2022-12-24T04:01:38;25.20;;;4.15;;
44110;SDS011;29774;52.664;5.074;2022-12-24T04:04:03;25.10;;;4.20;;
44110;SDS011;29774;52.664;5.074;2022-12-24T04:06:29;19.83;;;3.78;;
44110;SDS011;29774;52.664;5.074;2022-12-24T04:08:55;18.77;;;3.95;;
44110;SDS011;29774;52.664;5.074;2022-12-24T04:11:20;15.77;;;4.15;;
44110;SDS011;29774;52.664;5.074;2022-12-24T04:13:46;25.23;;;4.72;;
44110;SDS011;29774;52.664;5.074;2022-12-24T04:16:12;22.77;;;4.38;;
44110;SDS011;29774;52.664;5.074;2022-12-24T04:18:39;22.45;;;4.85;;
44110;SDS011;29774;52.664;5.074;2022-12-24T04:21:06;21.63;;;4.15;;
44110;SDS011;29774;52.664;5.074;2022-12-24T04:23:33;21.80;;;4.25;;
44110;SDS011;29774;52.664;5.074;2022-12-24T04:26:01;24.40;;;4.93;;
44110;SDS011;29774;52.664;5.074;2022-12-24T04:28:28;21.08;;;3.85;;
44110;SDS011;29774;52.664;5.074;2022-12-24T04:30:58;19.08;;;4.43;;
44110;SDS011;29774;52.664;5.074;2022-12-24T04:33:25;19.60;;;4.20;;
44110;SDS011;29774;52.664;5.074;2022-12-24T04:35:51;21.95;;;4.15;;
44110;SDS011;29774;52.664;5.074;2022-12-24T04:38:16;24.67;;;4.10;;
44110;SDS011;29774;52.664;5.074;2022-12-24T04:40:42;18.30;;;3.88;;
44110;SDS011;29774;52.664;5.074;2022-12-24T04:43:08;14.20;;;4.05;;
44110;SDS011;29774;52.664;5.074;2022-12-24T04:45:34;22.02;;;4.70;;
44110;SDS011;29774;52.664;5.074;2022-12-24T04:47:59;19.92;;;4.05;;
44110;SDS011;29774;52.664;5.074;2022-12-24T04:50:25;17.45;;;4.10;;
44110;SDS011;29774;52.664;5.074;2022-12-24T04:52:50;19.33;;;4.53;;
44110;SDS011;29774;52.664;5.074;2022-12-24T04:55:16;19.63;;;3.55;;
44110;SDS011;29774;52.664;5.074;2022-12-24T04:57:42;14.48;;;3.28;;
44110;SDS011;29774;52.664;5.074;2022-12-24T05:00:07;18.65;;;3.20;;
44110;SDS011;29774;52.664;5.074;2022-12-24T05:02:33;25.00;;;4.38;;
44110;SDS011;29774;52.664;5.074;2022-12-24T05:04:59;14.82;;;3.80;;
44110;SDS011;29774;52.664;5.074;2022-12-24T05:07:25;20.40;;;3.97;;
44110;SDS011;29774;52.664;5.074;2022-12-24T05:09:50;14.73;;;3.40;;
44110;SDS011;29774;52.664;5.074;2022-12-24T05:12:16;17.58;;;3.72;;
44110;SDS011;29774;52.664;5.074;2022-12-24T05:14:41;15.43;;;3.65;;
44110;SDS011;29774;52.664;5.074;2022-12-24T05:17:07;23.75;;;4.82;;
44110;SDS011;29774;52.664;5.074;2022-12-24T05:19:32;20.30;;;3.67;;
44110;SDS011;29774;52.664;5.074;2022-12-24T05:21:58;17.92;;;3.85;;
44110;SDS011;29774;52.664;5.074;2022-12-24T05:24:43;17.90;;;3.53;;
44110;SDS011;29774;52.664;5.074;2022-12-24T05:27:27;20.67;;;3.83;;
44110;SDS011;29774;52.664;5.074;2022-12-24T05:29:53;17.80;;;4.15;;
44110;SDS011;29774;52.664;5.074;2022-12-24T05:32:19;20.50;;;3.95;;
44110;SDS011;29774;52.664;5.074;2022-12-24T05:34:44;17.50;;;3.35;;
44110;SDS011;29774;52.664;5.074;2022-12-24T05:37:10;23.55;;;3.60;;
44110;SDS011;29774;52.664;5.074;2022-12-24T05:39:35;16.58;;;3.35;;
44110;SDS011;29774;52.664;5.074;2022-12-24T05:42:01;18.50;;;4.65;;
44110;SDS011;29774;52.664;5.074;2022-12-24T05:44:26;15.15;;;3.28;;
44110;SDS011;29774;52.664;5.074;2022-12-24T05:46:52;23.23;;;4.30;;
44110;SDS011;29774;52.664;5.074;2022-12-24T05:49:18;18.05;;;4.13;;
44110;SDS011;29774;52.664;5.074;2022-12-24T05:51:43;20.63;;;4.25;;
44110;SDS011;29774;52.664;5.074;2022-12-24T05:54:09;16.10;;;4.22;;
44110;SDS011;29774;52.664;5.074;2022-12-24T05:56:34;15.82;;;3.45;;
44110;SDS011;29774;52.664;5.074;2022-12-24T05:59:00;27.20;;;4.15;;
44110;SDS011;29774;52.664;5.074;2022-12-24T06:01:26;17.98;;;3.97;;
44110;SDS011;29774;52.664;5.074;2022-12-24T06:03:52;25.35;;;4.40;;
44110;SDS011;29774;52.664;5.074;2022-12-24T06:06:22;21.45;;;3.15;;
44110;SDS011;29774;52.664;5.074;2022-12-24T06:08:49;16.60;;;3.55;;
44110;SDS011;29774;52.664;5.074;2022-12-24T06:11:17;23.65;;;4.05;;
44110;SDS011;29774;52.664;5.074;2022-12-24T06:13:44;19.65;;;3.92;;
44110;SDS011;29774;52.664;5.074;2022-12-24T06:16:11;23.13;;;5.00;;
44110;SDS011;29774;52.664;5.074;2022-12-24T06:18:39;22.33;;;4.88;;
44110;SDS011;29774;52.664;5.074;2022-12-24T06:21:05;16.80;;;3.13;;
44110;SDS011;29774;52.664;5.074;2022-12-24T06:23:32;19.48;;;4.43;;
44110;SDS011;29774;52.664;5.074;2022-12-24T06:25:59;13.43;;;3.50;;
44110;SDS011;29774;52.664;5.074;2022-12-24T06:28:30;27.00;;;4.05;;
44110;SDS011;29774;52.664;5.074;2022-12-24T06:30:57;33.40;;;5.55;;
44110;SDS011;29774;52.664;5.074;2022-12-24T06:33:23;23.15;;;4.55;;
44110;SDS011;29774;52.664;5.074;2022-12-24T06:35:48;16.35;;;3.58;;
44110;SDS011;29774;52.664;5.074;2022-12-24T06:38:14;22.52;;;4.85;;
44110;SDS011;29774;52.664;5.074;2022-12-24T06:40:41;22.73;;;5.28;;
44110;SDS011;29774;52.664;5.074;2022-12-24T06:43:08;26.08;;;4.25;;
44110;SDS011;29774;52.664;5.074;2022-12-24T06:45:34;24.77;;;4.13;;
44110;SDS011;29774;52.664;5.074;2022-12-24T06:47:59;19.27;;;4.15;;
44110;SDS011;29774;52.664;5.074;2022-12-24T06:50:25;34.60;;;4.97;;
44110;SDS011;29774;52.664;5.074;2022-12-24T06:52:51;26.02;;;4.35;;
44110;SDS011;29774;52.664;5.074;2022-12-24T06:55:17;20.48;;;4.00;;
44110;SDS011;29774;52.664;5.074;2022-12-24T06:57:43;26.67;;;4.40;;
44110;SDS011;29774;52.664;5.074;2022-12-24T07:00:09;17.27;;;4.25;;
44110;SDS011;29774;52.664;5.074;2022-12-24T07:02:39;29.27;;;4.68;;
44110;SDS011;29774;52.664;5.074;2022-12-24T07:05:06;14.30;;;4.00;;
44110;SDS011;29774;52.664;5.074;2022-12-24T07:07:36;13.38;;;2.80;;
44110;SDS011;29774;52.664;5.074;2022-12-24T07:10:02;26.27;;;4.05;;
44110;SDS011;29774;52.664;5.074;2022-12-24T07:12:28;23.17;;;3.60;;
44110;SDS011;29774;52.664;5.074;2022-12-24T07:14:54;25.35;;;3.97;;
44110;SDS011;29774;52.664;5.074;2022-12-24T07:17:20;22.73;;;4.43;;
44110;SDS011;29774;52.664;5.074;2022-12-24T07:19:45;18.63;;;4.70;;
44110;SDS011;29774;52.664;5.074;2022-12-24T07:22:11;21.63;;;4.07;;
44110;SDS011;29774;52.664;5.074;2022-12-24T07:24:36;23.58;;;4.10;;
44110;SDS011;29774;52.664;5.074;2022-12-24T07:27:02;18.67;;;4.47;;
44110;SDS011;29774;52.664;5.074;2022-12-24T07:29:28;21.42;;;3.60;;
44110;SDS011;29774;52.664;5.074;2022-12-24T07:31:53;19.50;;;5.00;;
44110;SDS011;29774;52.664;5.074;2022-12-24T07:34:19;15.98;;;4.20;;
44110;SDS011;29774;52.664;5.074;2022-12-24T07:36:44;21.05;;;3.80;;
44110;SDS011;29774;52.664;5.074;2022-12-24T07:39:10;15.98;;;3.28;;
44110;SDS011;29774;52.664;5.074;2022-12-24T07:41:36;21.25;;;4.22;;
44110;SDS011;29774;52.664;5.074;2022-12-24T07:44:01;21.27;;;4.75;;
44110;SDS011;29774;52.664;5.074;2022-12-24T07:46:27;22.10;;;4.25;;
44110;SDS011;29774;52.664;5.074;2022-12-24T07:48:53;19.27;;;3.72;;
44110;SDS011;29774;52.664;5.074;2022-12-24T07:51:18;27.35;;;4.15;;
44110;SDS011;29774;52.664;5.074;2022-12-24T07:53:44;36.58;;;4.88;;
44110;SDS011;29774;52.664;5.074;2022-12-24T07:56:12;22.00;;;3.80;;
44110;SDS011;29774;52.664;5.074;2022-12-24T07:58:39;19.38;;;3.67;;
44110;SDS011;29774;52.664;5.074;2022-12-24T08:01:05;22.75;;;3.55;;
44110;SDS011;29774;52.664;5.074;2022-12-24T08:03:31;20.73;;;4.65;;
44110;SDS011;29774;52.664;5.074;2022-12-24T08:05:56;17.13;;;3.75;;
44110;SDS011;29774;52.664;5.074;2022-12-24T08:08:22;21.60;;;4.13;;
44110;SDS011;29774;52.664;5.074;2022-12-24T08:10:48;14.35;;;3.55;;
44110;SDS011;29774;52.664;5.074;2022-12-24T08:13:17;25.38;;;4.75;;
44110;SDS011;29774;52.664;5.074;2022-12-24T08:15:42;19.73;;;4.03;;
44110;SDS011;29774;52.664;5.074;2022-12-24T08:18:09;19.20;;;3.70;;
44110;SDS011;29774;52.664;5.074;2022-12-24T08:20:36;22.17;;;3.80;;
44110;SDS011;29774;52.664;5.074;2022-12-24T08:23:03;19.13;;;3.75;;
44110;SDS011;29774;52.664;5.074;2022-12-24T08:25:29;21.58;;;3.83;;
44110;SDS011;29774;52.664;5.074;2022-12-24T08:27:55;16.90;;;4.03;;
44110;SDS011;29774;52.664;5.074;2022-12-24T08:30:21;14.43;;;3.00;;
44110;SDS011;29774;52.664;5.074;2022-12-24T08:32:47;14.60;;;3.30;;
44110;SDS011;29774;52.664;5.074;2022-12-24T08:35:13;14.38;;;2.75;;
44110;SDS011;29774;52.664;5.074;2022-12-24T08:37:38;15.40;;;3.13;;
44110;SDS011;29774;52.664;5.074;2022-12-24T08:40:04;11.93;;;2.88;;
44110;SDS011;29774;52.664;5.074;2022-12-24T08:42:30;11.57;;;3.00;;
44110;SDS011;29774;52.664;5.074;2022-12-24T08:44:56;11.43;;;2.58;;
44110;SDS011;29774;52.664;5.074;2022-12-24T08:47:21;21.60;;;4.53;;
44110;SDS011;29774;52.664;5.074;2022-12-24T08:49:47;18.02;;;4.05;;
44110;SDS011;29774;52.664;5.074;2022-12-24T08:52:12;24.27;;;3.70;;
44110;SDS011;29774;52.664;5.074;2022-12-24T08:54:38;19.42;;;4.13;;
44110;SDS011;29774;52.664;5.074;2022-12-24T08:57:04;23.13;;;4.65;;
44110;SDS011;29774;52.664;5.074;2022-12-24T08:59:29;28.20;;;4.25;;
44110;SDS011;29774;52.664;5.074;2022-12-24T09:01:55;16.73;;;4.47;;
44110;SDS011;29774;52.664;5.074;2022-12-24T09:04:21;18.23;;;4.63;;
44110;SDS011;29774;52.664;5.074;2022-12-24T09:06:46;21.50;;;4.28;;
44110;SDS011;29774;52.664;5.074;2022-12-24T09:09:12;15.88;;;3.63;;
44110;SDS011;29774;52.664;5.074;2022-12-24T09:11:37;16.63;;;3.47;;
44110;SDS011;29774;52.664;5.074;2022-12-24T09:14:03;15.57;;;3.05;;
44110;SDS011;29774;52.664;5.074;2022-12-24T09:16:29;24.42;;;5.57;;
44110;SDS011;29774;52.664;5.074;2022-12-24T09:18:55;26.52;;;5.25;;
44110;SDS011;29774;52.664;5.074;2022-12-24T09:21:21;22.20;;;4.10;;
44110;SDS011;29774;52.664;5.074;2022-12-24T09:23:47;20.15;;;4.60;;
44110;SDS011;29774;52.664;5.074;2022-12-24T09:26:20;19.55;;;4.65;;
44110;SDS011;29774;52.664;5.074;2022-12-24T09:28:54;18.83;;;3.92;;
44110;SDS011;29774;52.664;5.074;2022-12-24T09:31:21;23.35;;;4.18;;
44110;SDS011;29774;52.664;5.074;2022-12-24T09:33:47;20.02;;;4.30;;
44110;SDS011;29774;52.664;5.074;2022-12-24T09:36:15;27.23;;;3.70;;
44110;SDS011;29774;52.664;5.074;2022-12-24T09:38:42;26.00;;;4.93;;
44110;SDS011;29774;52.664;5.074;2022-12-24T09:43:46;18.25;;;4.45;;
44110;SDS011;29774;52.664;5.074;2022-12-24T09:46:23;24.65;;;4.40;;
44110;SDS011;29774;52.664;5.074;2022-12-24T09:48:56;13.07;;;3.53;;
44110;SDS011;29774;52.664;5.074;2022-12-24T09:51:35;8.43;;;2.50;;
44110;SDS011;29774;52.664;5.074;2022-12-24T09:54:30;8.02;;;2.05;;
44110;SDS011;29774;52.664;5.074;2022-12-24T09:57:00;18.67;;;4.00;;
44110;SDS011;29774;52.664;5.074;2022-12-24T09:59:40;22.83;;;4.18;;
44110;SDS011;29774;52.664;5.074;2022-12-24T10:02:11;21.10;;;4.38;;
44110;SDS011;29774;52.664;5.074;2022-12-24T10:04:39;21.00;;;3.40;;
44110;SDS011;29774;52.664;5.074;2022-12-24T10:12:53;17.65;;;3.95;;
44110;SDS011;29774;52.664;5.074;2022-12-24T10:15:43;15.35;;;3.08;;
44110;SDS011;29774;52.664;5.074;2022-12-24T10:18:26;17.63;;;2.95;;
44110;SDS011;29774;52.664;5.074;2022-12-24T10:21:14;13.70;;;3.35;;
44110;SDS011;29774;52.664;5.074;2022-12-24T10:23:46;23.85;;;4.40;;
44110;SDS011;29774;52.664;5.074;2022-12-24T10:26:24;15.50;;;2.75;;
44110;SDS011;29774;52.664;5.074;2022-12-24T10:28:56;25.65;;;4.72;;
44110;SDS011;29774;52.664;5.074;2022-12-24T10:31:26;17.90;;;4.25;;
44110;SDS011;29774;52.664;5.074;2022-12-24T10:33:56;16.77;;;3.55;;
44110;SDS011;29774;52.664;5.074;2022-12-24T10:36:28;21.13;;;4.00;;
44110;SDS011;29774;52.664;5.074;2022-12-24T10:38:56;17.95;;;4.32;;
44110;SDS011;29774;52.664;5.074;2022-12-24T10:41:22;23.90;;;3.58;;
44110;SDS011;29774;52.664;5.074;2022-12-24T10:43:50;21.30;;;4.20;;
44110;SDS011;29774;52.664;5.074;2022-12-24T10:48:56;14.73;;;3.03;;
44110;SDS011;29774;52.664;5.074;2022-12-24T10:56:38;10.52;;;3.10;;
44110;SDS011;29774;52.664;5.074;2022-12-24T10:59:27;18.70;;;4.25;;
44110;SDS011;29774;52.664;5.074;2022-12-24T11:01:54;16.75;;;2.88;;
44110;SDS011;29774;52.664;5.074;2022-12-24T11:04:23;15.38;;;3.47;;
44110;SDS011;29774;52.664;5.074;2022-12-24T11:06:58;17.05;;;3.72;;
44110;SDS011;29774;52.664;5.074;2022-12-24T11:09:32;9.65;;;2.55;;
44110;SDS011;29774;52.664;5.074;2022-12-24T11:12:02;14.35;;;2.58;;
44110;SDS011;29774;52.664;5.074;2022-12-24T11:14:32;17.35;;;3.03;;
44110;SDS011;29774;52.664;5.074;2022-12-24T11:17:00;19.38;;;3.28;;
44110;SDS011;29774;52.664;5.074;2022-12-24T11:19:33;14.07;;;2.95;;
44110;SDS011;29774;52.664;5.074;2022-12-24T11:22:04;10.95;;;2.40;;
44110;SDS011;29774;52.664;5.074;2022-12-24T11:24:42;18.10;;;3.47;;
44110;SDS011;29774;52.664;5.074;2022-12-24T11:27:29;16.38;;;3.40;;
44110;SDS011;29774;52.664;5.074;2022-12-24T11:30:41;16.58;;;3.40;;
44110;SDS011;29774;52.664;5.074;2022-12-24T11:32:50;8.13;;;2.30;;
44110;SDS011;29774;52.664;5.074;2022-12-24T11:35:32;9.98;;;2.60;;
44110;SDS011;29774;52.664;5.074;2022-12-24T11:40:41;11.65;;;2.58;;
44110;SDS011;29774;52.664;5.074;2022-12-24T11:43:13;9.48;;;2.38;;
44110;SDS011;29774;52.664;5.074;2022-12-24T11:45:46;9.75;;;2.83;;
44110;SDS011;29774;52.664;5.074;2022-12-24T11:48:24;15.30;;;3.15;;
44110;SDS011;29774;52.664;5.074;2022-12-24T11:50:55;15.27;;;3.05;;
44110;SDS011;29774;52.664;5.074;2022-12-24T11:56:07;11.98;;;2.67;;
44110;SDS011;29774;52.664;5.074;2022-12-24T12:03:48;12.35;;;2.60;;
44110;SDS011;29774;52.664;5.074;2022-12-24T12:06:25;12.80;;;2.85;;
44110;SDS011;29774;52.664;5.074;2022-12-24T12:08:56;8.05;;;2.20;;
44110;SDS011;29774;52.664;5.074;2022-12-24T12:11:26;7.90;;;1.98;;
44110;SDS011;29774;52.664;5.074;2022-12-24T12:13:53;16.75;;;2.80;;
44110;SDS011;29774;52.664;5.074;2022-12-24T12:16:24;10.32;;;2.25;;
44110;SDS011;29774;52.664;5.074;2022-12-24T12:19:41;6.88;;;1.90;;
44110;SDS011;29774;52.664;5.074;2022-12-24T12:22:14;6.10;;;1.83;;
44110;SDS011;29774;52.664;5.074;2022-12-24T12:25:03;7.80;;;1.95;;
44110;SDS011;29774;52.664;5.074;2022-12-24T12:27:45;5.18;;;1.45;;
44110;SDS011;29774;52.664;5.074;2022-12-24T12:30:16;13.02;;;2.70;;
44110;SDS011;29774;52.664;5.074;2022-12-24T12:32:52;8.20;;;2.30;;
44110;SDS011;29774;52.664;5.074;2022-12-24T12:35:41;12.20;;;3.35;;
44110;SDS011;29774;52.664;5.074;2022-12-24T12:38:09;9.00;;;2.22;;
44110;SDS011;29774;52.664;5.074;2022-12-24T12:40:42;15.43;;;2.65;;
44110;SDS011;29774;52.664;5.074;2022-12-24T12:57:05;10.98;;;2.38;;
44110;SDS011;29774;52.664;5.074;2022-12-24T13:00:09;11.00;;;2.97;;
44110;SDS011;29774;52.664;5.074;2022-12-24T13:02:54;14.90;;;3.65;;
44110;SDS011;29774;52.664;5.074;2022-12-24T13:08:49;18.30;;;3.20;;
44110;SDS011;29774;52.664;5.074;2022-12-24T13:19:43;14.90;;;3.08;;
44110;SDS011;29774;52.664;5.074;2022-12-24T13:22:20;15.02;;;2.63;;
44110;SDS011;29774;52.664;5.074;2022-12-24T13:24:50;10.05;;;2.00;;
44110;SDS011;29774;52.664;5.074;2022-12-24T13:27:27;11.90;;;2.70;;
44110;SDS011;29774;52.664;5.074;2022-12-24T13:29:58;18.80;;;2.85;;
44110;SDS011;29774;52.664;5.074;2022-12-24T13:32:51;11.55;;;2.45;;
44110;SDS011;29774;52.664;5.074;2022-12-24T13:35:26;8.88;;;2.38;;
44110;SDS011;29774;52.664;5.074;2022-12-24T13:37:53;9.07;;;2.60;;
44110;SDS011;29774;52.664;5.074;2022-12-24T13:40:34;12.25;;;3.08;;
44110;SDS011;29774;52.664;5.074;2022-12-24T13:50:45;16.88;;;3.60;;
44110;SDS011;29774;52.664;5.074;2022-12-24T13:53:21;9.48;;;2.63;;
44110;SDS011;29774;52.664;5.074;2022-12-24T13:55:53;15.45;;;2.95;;
44110;SDS011;29774;52.664;5.074;2022-12-24T13:58:22;11.88;;;2.45;;
44110;SDS011;29774;52.664;5.074;2022-12-24T14:00:52;12.68;;;3.60;;
44110;SDS011;29774;52.664;5.074;2022-12-24T14:03:34;13.55;;;3.35;;
44110;SDS011;29774;52.664;5.074;2022-12-24T14:06:04;18.33;;;3.25;;
44110;SDS011;29774;52.664;5.074;2022-12-24T14:08:35;15.32;;;3.15;;
44110;SDS011;29774;52.664;5.074;2022-12-24T14:11:10;9.15;;;2.30;;
44110;SDS011;29774;52.664;5.074;2022-12-24T14:16:02;15.43;;;3.58;;
44110;SDS011;29774;52.664;5.074;2022-12-24T14:18:38;17.90;;;4.35;;
44110;SDS011;29774;52.664;5.074;2022-12-24T14:21:07;26.38;;;3.97;;
44110;SDS011;29774;52.664;5.074;2022-12-24T14:23:56;14.85;;;4.00;;
44110;SDS011;29774;52.664;5.074;2022-12-24T14:26:29;10.82;;;3.28;;
44110;SDS011;29774;52.664;5.074;2022-12-24T14:31:50;13.55;;;2.47;;
44110;SDS011;29774;52.664;5.074;2022-12-24T14:34:17;11.05;;;2.55;;
44110;SDS011;29774;52.664;5.074;2022-12-24T14:36:43;20.58;;;3.63;;
44110;SDS011;29774;52.664;5.074;2022-12-24T14:39:10;12.48;;;2.95;;
44110;SDS011;29774;52.664;5.074;2022-12-24T14:47:29;10.40;;;2.67;;
44110;SDS011;29774;52.664;5.074;2022-12-24T14:50:49;15.60;;;3.05;;
44110;SDS011;29774;52.664;5.074;2022-12-24T14:53:04;6.85;;;2.17;;
44110;SDS011;29774;52.664;5.074;2022-12-24T14:55:50;10.88;;;2.90;;
44110;SDS011;29774;52.664;5.074;2022-12-24T14:58:17;19.45;;;3.50;;
44110;SDS011;29774;52.664;5.074;2022-12-24T15:00:53;16.90;;;3.58;;
44110;SDS011;29774;52.664;5.074;2022-12-24T15:03:24;17.27;;;3.65;;
44110;SDS011;29774;52.664;5.074;2022-12-24T15:05:56;15.35;;;4.75;;
44110;SDS011;29774;52.664;5.074;2022-12-24T15:08:42;12.77;;;3.38;;
44110;SDS011;29774;52.664;5.074;2022-12-24T15:11:13;13.73;;;3.72;;
44110;SDS011;29774;52.664;5.074;2022-12-24T15:13:45;15.60;;;3.15;;
44110;SDS011;29774;52.664;5.074;2022-12-24T15:16:26;20.98;;;3.97;;
44110;SDS011;29774;52.664;5.074;2022-12-24T15:18:55;20.55;;;3.38;;
44110;SDS011;29774;52.664;5.074;2022-12-24T15:21:30;29.05;;;7.25;;
44110;SDS011;29774;52.664;5.074;2022-12-24T15:23:58;19.05;;;6.93;;
44110;SDS011;29774;52.664;5.074;2022-12-24T15:26:31;23.73;;;7.47;;
44110;SDS011;29774;52.664;5.074;2022-12-24T15:29:00;16.30;;;4.05;;
44110;SDS011;29774;52.664;5.074;2022-12-24T15:31:38;19.55;;;4.50;;
44110;SDS011;29774;52.664;5.074;2022-12-24T15:34:04;16.35;;;4.60;;
44110;SDS011;29774;52.664;5.074;2022-12-24T15:36:30;28.35;;;8.05;;
44110;SDS011;29774;52.664;5.074;2022-12-24T15:39:03;17.23;;;3.80;;
44110;SDS011;29774;52.664;5.074;2022-12-24T15:44:24;16.27;;;3.95;;
44110;SDS011;29774;52.664;5.074;2022-12-24T15:46:56;16.00;;;3.80;;
44110;SDS011;29774;52.664;5.074;2022-12-24T15:49:29;14.07;;;3.72;;
44110;SDS011;29774;52.664;5.074;2022-12-24T15:52:03;15.48;;;3.65;;
44110;SDS011;29774;52.664;5.074;2022-12-24T15:54:31;13.20;;;3.38;;
44110;SDS011;29774;52.664;5.074;2022-12-24T15:56:57;16.63;;;3.97;;
44110;SDS011;29774;52.664;5.074;2022-12-24T16:07:59;18.90;;;4.30;;
44110;SDS011;29774;52.664;5.074;2022-12-24T16:15:52;26.55;;;5.93;;
44110;SDS011;29774;52.664;5.074;2022-12-24T16:18:30;16.27;;;5.15;;
44110;SDS011;29774;52.664;5.074;2022-12-24T16:20:57;17.85;;;3.83;;
44110;SDS011;29774;52.664;5.074;2022-12-24T16:23:36;17.02;;;3.80;;
44110;SDS011;29774;52.664;5.074;2022-12-24T16:26:09;16.33;;;4.47;;
44110;SDS011;29774;52.664;5.074;2022-12-24T16:28:35;23.13;;;5.10;;
44110;SDS011;29774;52.664;5.074;2022-12-24T16:31:00;21.42;;;4.53;;
44110;SDS011;29774;52.664;5.074;2022-12-24T16:33:26;19.67;;;4.88;;
44110;SDS011;29774;52.664;5.074;2022-12-24T16:35:53;18.02;;;5.88;;
44110;SDS011;29774;52.664;5.074;2022-12-24T16:38:19;29.30;;;10.38;;
44110;SDS011;29774;52.664;5.074;2022-12-24T16:40:45;24.23;;;8.50;;